Terminal Aerodrome Forecast
Issued by NWS Twin Cities, MN

Home | Current Version | Previous Version | Text Only | Print | Product List | Glossary Off
Versions: 1 2 3 4 5 6 7 8 9 10 11 12 13 14 15 16 17 18 19 20 21 22 23

502
FTUS43 KMPX 191125
TAFMSP
TAF
KMSP 191125Z 1912/2018 20004KT P6SM BKN250
     FM191800 21008KT P6SM BKN200
     FM200000 25007KT P6SM BKN200
     FM200500 29003KT P6SM BKN150
     FM200900 00000KT P6SM BKN080=

USA.gov is the U.S. government's official web portal to all federal, state and local government web resources and services.